Cozumel, Mexico

3:02 PM EST on April 28, 2015 (GMT -0500)
Cozumel International | | Change Station
CLOSE
Current Station
Airport
Location: Cozumel,
Elevation: 16 ft
Nearby Weather Stations

Elev 16 ft 20.52 °N, 86.93 °W | Updated 11 minutes ago

Scattered Clouds
Scattered Clouds
86 °F
Feels Like 97 °F
N
9
Wind Variable Wind from SSE

Today
High -- | Low -- °F
--% Chance of Precip.
Yesterday
High -- | Low -- °F
Precip. -- in
6:19 AM 7:10 PM
Waxing Gibbous, 76% visible
Pressure 29.71 in
Visibility 7.0 miles
Clouds Scattered Clouds 1500 ft
Heat Index 97 °F
Dew Point 77 °F
Humidity 74%
Rainfall 0.00 in
Snow Depth Not available.
UV 11 out of 12
Pollen Not available.
Air Quality Not available.
Flu Activity Not available.
METAR MMCZ 281951Z 15008KT 7SM SCT015 30/25 A2971 RMK 8/100 HZY CI

More Conditions Fewer Conditions

Pressure 29.71 in
Visibility 7.0 miles
Clouds Scattered Clouds 1500 ft
Heat Index 97 °F
Dew Point 77 °F
Humidity 74%
Rainfall 0.00 in
Snow Depth Not available.
UV 11 out of 12
Pollen Not available.
Air Quality Not available.
Flu Activity Not available.
METAR MMCZ 281951Z 15008KT 7SM SCT015 30/25 A2971 RMK 8/100 HZY CI

More Conditions Fewer Conditions

10-Day Weather Forecast

Almanac

Astronomy

Apr. 28, 2015 Rise Set
Actual Time
Civil Twilight
Nautical Twilight
Astronomical Twilight
Moon
Length of Visible Light
Length of Day
Tomorrow will be .
, % of the Moon is Illuminated

Today's Extremes

Country Highs Country Lows

Community

WunderPhotos

Upload Photos

1,817,742 photos uploaded!

WunderBlogs® & News

Nearby

Air Quality

  Air Quality AQ Index Pollutant
Not available.

Snow Depth

Station Depth Elevation

Earthquake Activity

City Distance Mag. Time & Date
Minimum magnitude displayed is 2.5.

Coastal Water Temperatures

Place Temperature

Stations

Nearby Weather Stations

Station Location Temp. Windchill Dew Point Humidity Wind Precip. Elev Updated Type